Hauptseite
METAR-TAF:

METAR-TAF

Flughäfen :

Cambridge, England

Breite: 52-12N, Länge: 000-11E, Höhe: 15 m

Beobachtung

Neuester Wetterbericht von vor 7 Stunden und 23 Minuten, um 16:50 UTC
Wind 2 kt aus unterschiedlichen Richtungen
Temperatur 12°C
Luftfeuchtigkeit 88%
Luftdruck 1009 hPa
Sichtweite 10 km oder mehr
Leicht bewölkt in der Höhe von 4000 ft

METAR: EGSC 231650Z VRB02KT 9999 FEW040 12/10 Q1009

Zeit: 01:13 (00:13 UTC)

Prognose

Neuester Wetterbericht von vor 10 Stunden und 15 Minuten, um 13:58 UTC
Gültige Prognose vom 23 um 15 UTC bis 23 um 19 UTC
Wind 3 kt aus unterschiedlichen Richtungen
Sichtweite 10 km oder mehr
Aufgelockert bewölkt in der Höhe von 3500 ft
Zeitweise
vom 23 um 15 UTC bis 23 um 19 UTC
Sichtweite: 8000 m
Durchbrochene Bewölkung in der Höhe von 1000 ft
Leichtregen

TAF: EGSC 231358Z 2315/2319 VRB03KT 9999 SCT035 TEMPO 2315/2319 8000 -RA BKN010

Wetterbeobachtungen und Prognosen von mehr als 4000 Flughäfen (METAR und TAF Bericht).

Die verfügbaren Stationen werden durch gelbe und rote Markierungen auf der Karte dargestellt.

Führen Sie die Maus auf sie, um den Namen der Station zu sehen.

Darauf klicken, um die Beobachtung von Wetterbeobachtungen und Prognosen zu sehen.

Um die Karte zu ändern : klicken Sie auf den grünen Tasten mit einem schwarzen Kreuz Zum Vergrößern, auf den grünen Button mit einem Gedankenstrich zu verkleinern, oder auf die grünen Pfeile für benachbarte Karten.


METAR-TAF: